Time;durP1;ratioP1;P1;durP2;ratioP2;P2;SDS_P1;SDS_P2;PMS_P1;PMS_P2;Temp;Humidity;BMP_temperature;BMP_pressure;BME280_temperature;BME280_humidity;BME280_pressure;Samples;Min_cycle;Max_cycle;Signal;HPM_P1;HPM_P2
2022/09/13 00:01:00;;;;;;;5.47;3.50;;;;;;;15.26;71.29;99606.06;1698946;83;21725;-71
2022/09/13 00:03:29;;;;;;;6.17;4.00;;;;;;;15.23;71.22;99603.47;1761863;80;21645;-72
2022/09/13 00:05:56;;;;;;;5.03;3.77;;;;;;;15.24;71.33;99605.05;1770104;79;21460;-71
2022/09/13 00:08:24;;;;;;;5.03;4.03;;;;;;;15.24;71.33;99605.05;1772071;80;21755;-72
2022/09/13 00:10:52;;;;;;;5.03;3.50;;;;;;;15.27;71.47;99609.55;1767735;80;21464;-72
2022/09/13 00:13:18;;;;;;;6.17;4.10;;;;;;;15.25;71.50;99606.63;1753917;80;22008;-72
2022/09/13 00:15:47;;;;;;;6.03;3.37;;;;;;;15.22;71.41;99595.14;1767970;80;21460;-72
2022/09/13 00:18:14;;;;;;;5.47;3.77;;;;;;;15.24;71.83;99595.63;1709847;82;21570;-71
2022/09/13 00:20:40;;;;;;;5.10;3.93;;;;;;;15.27;71.60;99592.88;1697308;83;21838;-73
2022/09/13 00:23:07;;;;;;;5.20;4.00;;;;;;;15.32;72.08;99602.69;1771352;80;21998;-72
2022/09/13 00:25:34;;;;;;;5.13;3.73;;;;;;;15.31;71.66;99594.39;1764149;80;21518;-72
2022/09/13 00:28:02;;;;;;;6.03;4.00;;;;;;;15.31;71.66;99594.39;1752285;80;21389;-72
2022/09/13 00:30:29;;;;;;;6.40;4.43;;;;;;;15.31;71.77;99594.39;1710557;82;21996;-72
2022/09/13 00:32:55;;;;;;;7.27;4.30;;;;;;;15.37;71.77;99601.22;1694521;83;21775;-72
2022/09/13 00:35:22;;;;;;;6.83;4.27;;;;;;;15.39;71.78;99600.34;1693646;83;21625;-72
2022/09/13 00:37:49;;;;;;;5.87;3.97;;;;;;;15.43;71.62;99599.42;1728783;82;21617;-71
2022/09/13 00:40:16;;;;;;;5.73;4.30;;;;;;;15.45;71.67;99597.75;1771324;80;21477;-71
2022/09/13 00:42:42;;;;;;;5.97;3.83;;;;;;;15.44;71.57;99602.34;1759227;80;21590;-72
2022/09/13 00:45:14;;;;;;;5.63;4.17;;;;;;;15.44;71.63;99602.89;1712930;83;21583;-70
2022/09/13 00:48:02;;;;;;;5.30;4.00;;;;;;;15.45;71.52;99603.13;1712053;82;21647;-70
2022/09/13 00:50:42;;;;;;;6.23;4.10;;;;;;;15.48;71.85;99594.44;1706782;83;21562;-70
2022/09/13 00:53:17;;;;;;;5.30;4.57;;;;;;;15.48;71.85;99594.44;1705939;83;21742;-71
2022/09/13 00:55:57;;;;;;;6.73;4.10;;;;;;;15.52;71.68;99594.04;1701462;83;21647;-71
2022/09/13 00:58:32;;;;;;;6.27;4.23;;;;;;;15.53;71.78;99593.48;1702053;83;21544;-71
2022/09/13 01:00:59;;;;;;;6.97;4.90;;;;;;;15.53;71.78;99593.48;1703049;83;22183;-71
2022/09/13 01:03:28;;;;;;;8.20;4.60;;;;;;;15.53;71.62;99588.92;1725539;83;21577;-71
2022/09/13 01:06:05;;;;;;;7.10;4.50;;;;;;;15.56;71.72;99590.95;1783743;79;22081;-73
2022/09/13 01:08:32;;;;;;;8.23;4.73;;;;;;;15.60;71.75;99595.19;1760803;80;21578;-71
2022/09/13 01:11:00;;;;;;;7.43;4.80;;;;;;;15.71;71.72;99598.63;1770700;80;21565;-70
2022/09/13 01:13:32;;;;;;;6.07;4.60;;;;;;;15.71;71.72;99598.63;1767701;80;21776;-72
2022/09/13 01:16:00;;;;;;;6.90;4.23;;;;;;;15.70;71.45;99584.94;1769136;80;21514;-70
2022/09/13 01:18:27;;;;;;;7.50;4.40;;;;;;;15.70;71.45;99584.94;1784497;80;21466;-70
2022/09/13 01:21:28;;;;;;;6.67;5.20;;;;;;;15.65;71.54;99585.04;1783188;80;21627;-71
2022/09/13 01:24:28;;;;;;;6.47;4.70;;;;;;;15.63;71.63;99590.48;1780946;80;21507;-71
2022/09/13 01:27:30;;;;;;;5.40;4.37;;;;;;;15.61;72.01;99584.09;1764359;80;22703;-71
2022/09/13 01:30:22;;;;;;;6.45;4.40;;;;;;;15.61;71.90;99585.44;1712480;83;21429;-72
2022/09/13 01:33:21;;;;;;;5.63;4.57;;;;;;;15.61;72.19;99584.09;1709805;82;21038;-72
2022/09/13 01:36:32;;;;;;;5.77;4.27;;;;;;;15.61;72.19;99584.09;1686088;84;21565;-73
2022/09/13 01:39:23;;;;;;;6.90;4.77;;;;;;;15.60;72.14;99573.65;1704502;84;21506;-73
2022/09/13 01:42:05;;;;;;;6.20;4.57;;;;;;;15.60;72.27;99581.17;1688607;84;21477;-73
2022/09/13 01:45:00;;;;;;;6.77;4.40;;;;;;;15.60;72.27;99581.17;1704659;83;21529;-72
2022/09/13 01:47:35;;;;;;;6.17;4.67;;;;;;;15.61;72.46;99582.75;1703211;83;21427;-73
2022/09/13 01:50:16;;;;;;;8.47;5.00;;;;;;;15.64;72.77;99582.67;1706291;83;22114;-73
2022/09/13 01:52:56;;;;;;;6.45;4.53;;;;;;;15.67;72.54;99576.14;1704268;84;21453;-73
2022/09/13 01:55:28;;;;;;;7.63;5.17;;;;;;;15.70;72.35;99584.14;1704126;83;21112;-72
2022/09/13 01:58:18;;;;;;;7.30;5.00;;;;;;;15.70;72.35;99584.14;1714304;83;21549;-73
2022/09/13 02:01:00;;;;;;;7.50;5.23;;;;;;;15.70;72.57;99576.86;1767963;80;21439;-71
2022/09/13 02:03:33;;;;;;;6.15;4.92;;;;;;;15.75;72.69;99572.42;1771217;80;28747;-72
2022/09/13 02:06:05;;;;;;;7.77;5.27;;;;;;;15.77;72.69;99568.88;1771457;80;20955;-72
2022/09/13 02:08:40;;;;;;;8.85;5.58;;;;;;;15.77;72.69;99568.88;1771253;80;21526;-71
2022/09/13 02:11:11;;;;;;;6.37;5.30;;;;;;;15.76;72.51;99569.95;1760445;80;21106;-71
2022/09/13 02:13:46;;;;;;;7.37;5.20;;;;;;;15.76;72.51;99569.95;1771096;80;22078;-69
2022/09/13 02:16:23;;;;;;;7.63;5.70;;;;;;;15.75;72.92;99571.08;1757385;80;22006;-70
2022/09/13 02:18:54;;;;;;;7.37;5.27;;;;;;;15.73;72.85;99564.67;1726082;80;21714;-71
2022/09/13 02:21:38;;;;;;;8.33;5.77;;;;;;;15.71;73.00;99561.49;1722666;80;21721;-70
2022/09/13 02:24:20;;;;;;;8.13;5.73;;;;;;;15.73;73.00;99563.86;1720702;83;21465;-71
2022/09/13 02:26:58;;;;;;;7.20;5.53;;;;;;;15.64;73.39;99565.97;1720398;83;21525;-72
2022/09/13 02:29:38;;;;;;;7.70;5.47;;;;;;;15.64;73.39;99565.97;1719669;82;21482;-71
2022/09/13 02:32:29;;;;;;;6.53;5.40;;;;;;;15.62;73.33;99572.20;1720614;83;21488;-71
2022/09/13 02:35:27;;;;;;;6.80;5.30;;;;;;;15.60;73.37;99560.98;1720743;83;21527;-72
2022/09/13 02:38:06;;;;;;;6.97;5.87;;;;;;;15.63;73.73;99567.08;1703787;82;21468;-70
2022/09/13 02:40:41;;;;;;;7.20;5.53;;;;;;;15.63;73.68;99568.43;1719910;82;21357;-70
2022/09/13 02:43:41;;;;;;;8.07;6.30;;;;;;;15.63;73.68;99568.43;1720870;83;21484;-71
2022/09/13 02:46:51;;;;;;;7.27;5.80;;;;;;;15.63;73.77;99558.19;1720461;82;22015;-71
2022/09/13 02:49:54;;;;;;;6.60;5.77;;;;;;;15.63;73.77;99558.19;1719845;82;21464;-71
2022/09/13 02:52:58;;;;;;;7.50;6.00;;;;;;;15.62;73.84;99552.02;1720573;82;21989;-71
2022/09/13 02:55:48;;;;;;;7.85;6.55;;;;;;;15.62;73.88;99552.58;1721073;83;21473;-72
2022/09/13 02:58:33;;;;;;;8.70;7.07;;;;;;;15.62;73.89;99556.61;1720621;82;21141;-71
2022/09/13 03:01:11;;;;;;;9.80;7.20;;;;;;;15.61;74.05;99555.83;1703267;82;21519;-72
2022/09/13 03:03:43;;;;;;;9.07;6.80;;;;;;;15.61;74.05;99555.83;1720700;82;21438;-72
2022/09/13 03:06:11;;;;;;;10.40;7.27;;;;;;;15.57;73.92;99548.70;1712807;83;21463;-72
2022/09/13 03:08:49;;;;;;;10.23;8.25;;;;;;;15.55;73.97;99551.70;1721335;82;21511;-72
2022/09/13 03:12:06;;;;;;;9.43;7.73;;;;;;;15.57;74.31;99548.70;1692641;83;21098;-72
2022/09/13 03:15:10;;;;;;;10.60;7.03;;;;;;;15.57;74.31;99548.70;1712197;82;22021;-72
2022/09/13 03:18:02;;;;;;;9.97;8.43;;;;;;;15.55;74.15;99553.60;1712295;82;21538;-71
2022/09/13 03:21:18;;;;;;;8.37;7.50;;;;;;;15.52;74.18;99559.05;1711913;82;21296;-72
2022/09/13 03:24:26;;;;;;;10.33;8.40;;;;;;;15.49;74.28;99565.84;1711969;82;21373;-72
2022/09/13 03:27:45;;;;;;;8.83;7.77;;;;;;;15.47;74.39;99560.56;1711996;82;21368;-73
2022/09/13 03:30:14;;;;;;;9.60;8.60;;;;;;;15.48;74.47;99564.83;1711923;82;21419;-73
2022/09/13 03:33:13;;;;;;;9.10;7.87;;;;;;;15.48;74.73;99564.83;1711871;82;21389;-71
2022/09/13 03:35:51;;;;;;;8.73;7.83;;;;;;;15.48;74.73;99564.83;1671934;83;21665;-72
2022/09/13 03:38:31;;;;;;;8.73;7.10;;;;;;;15.49;74.62;99563.71;1712241;82;21340;-72
2022/09/13 03:41:21;;;;;;;9.20;7.33;;;;;;;15.48;74.65;99558.89;1712154;82;21870;-72
2022/09/13 03:43:58;;;;;;;9.93;7.20;;;;;;;15.45;74.60;99569.48;1711915;83;21463;-72
2022/09/13 03:46:45;;;;;;;8.10;6.60;;;;;;;15.45;75.12;99568.14;1711764;82;21505;-72
2022/09/13 03:49:18;;;;;;;8.70;7.30;;;;;;;15.43;75.10;99569.81;1711937;82;21496;-73
2022/09/13 03:51:47;;;;;;;8.13;6.87;;;;;;;15.43;75.10;99569.81;1692110;82;21342;-73
2022/09/13 03:54:36;;;;;;;8.00;7.13;;;;;;;15.43;74.69;99569.00;1694837;82;21529;-72
2022/09/13 03:57:20;;;;;;;8.10;6.20;;;;;;;15.46;74.68;99575.92;1713921;82;21439;-72
2022/09/13 04:00:02;;;;;;;6.83;6.13;;;;;;;15.44;74.60;99577.33;1711891;82;21401;-73
2022/09/13 04:02:39;;;;;;;6.70;5.60;;;;;;;15.44;74.60;99577.33;1711894;83;21621;-72
2022/09/13 04:05:09;;;;;;;8.90;6.83;;;;;;;15.39;74.80;99583.63;1711877;82;21985;-72
2022/09/13 04:07:36;;;;;;;8.27;7.00;;;;;;;15.36;74.65;99583.47;1712166;82;21509;-72
2022/09/13 04:10:20;;;;;;;7.80;6.97;;;;;;;15.36;74.65;99583.47;1702914;84;21630;-71
2022/09/13 04:12:54;;;;;;;7.90;6.57;;;;;;;15.37;74.60;99574.31;1712071;83;21355;-73
2022/09/13 04:15:23;;;;;;;8.50;6.50;;;;;;;15.36;74.63;99580.78;1682011;85;21763;-73
2022/09/13 04:17:53;;;;;;;8.48;6.78;;;;;;;15.36;74.67;99580.22;1680239;84;21443;-72
2022/09/13 04:20:25;;;;;;;7.87;6.28;;;;;;;15.38;74.73;99582.06;1711621;83;21089;-73
2022/09/13 04:22:54;;;;;;;8.03;6.30;;;;;;;15.40;74.79;99585.77;1681929;84;21031;-74
2022/09/13 04:25:52;;;;;;;8.97;6.53;;;;;;;15.40;74.76;99581.73;1696039;84;21510;-72
2022/09/13 04:28:20;;;;;;;8.87;7.13;;;;;;;15.36;74.35;99588.30;1689710;83;21556;-73
2022/09/13 04:30:48;;;;;;;7.53;6.67;;;;;;;15.33;74.63;99593.50;1657241;84;21462;-74
2022/09/13 04:33:19;;;;;;;8.60;7.67;;;;;;;15.33;74.63;99593.50;1711924;83;21370;-73
2022/09/13 04:35:43;;;;;;;10.43;8.43;;;;;;;15.30;74.77;99588.22;1695372;84;21556;-73
2022/09/13 04:38:10;;;;;;;9.30;7.67;;;;;;;15.25;75.08;99583.76;1696453;84;21452;-72
2022/09/13 04:40:38;;;;;;;9.50;7.77;;;;;;;15.25;75.08;99583.76;1696299;84;21431;-72
2022/09/13 04:43:05;;;;;;;8.97;7.73;;;;;;;15.23;74.95;99583.30;1696191;84;21429;-72
2022/09/13 04:45:32;;;;;;;8.70;7.80;;;;;;;15.22;75.00;99586.28;1690396;84;21554;-73
2022/09/13 04:48:00;;;;;;;9.63;7.90;;;;;;;15.15;75.14;99582.70;1753601;81;21469;-73
2022/09/13 04:50:27;;;;;;;12.20;8.10;;;;;;;15.17;75.45;99591.26;1763452;80;21711;-72
2022/09/13 04:52:54;;;;;;;8.80;7.43;;;;;;;15.12;75.56;99587.34;1775982;80;21434;-73
2022/09/13 04:55:20;;;;;;;10.27;7.80;;;;;;;15.14;75.31;99591.88;1784582;80;21528;-73
2022/09/13 04:57:53;;;;;;;11.00;7.00;;;;;;;15.14;75.31;99591.88;1783963;80;21413;-73
2022/09/13 05:00:20;;;;;;;10.67;7.40;;;;;;;15.16;75.58;99586.96;1756422;80;21926;-73
2022/09/13 05:02:47;;;;;;;9.50;7.23;;;;;;;15.22;75.58;99594.34;1784416;80;21422;-74
2022/09/13 05:05:13;;;;;;;9.93;6.80;;;;;;;15.22;75.60;99588.97;1784503;79;21492;-73
2022/09/13 05:07:41;;;;;;;9.10;7.43;;;;;;;15.22;75.53;99591.66;1761308;80;22186;-72
2022/09/13 05:10:09;;;;;;;9.13;6.40;;;;;;;15.23;75.55;99590.55;1753351;80;21379;-72
2022/09/13 05:12:36;;;;;;;10.53;7.30;;;;;;;15.23;75.45;99585.16;1757740;80;21425;-73
2022/09/13 05:15:05;;;;;;;8.40;6.70;;;;;;;15.25;75.85;99587.00;1771457;80;21561;-73
2022/09/13 05:17:32;;;;;;;11.13;8.20;;;;;;;15.25;75.85;99587.00;1773907;80;21976;-73
2022/09/13 05:19:59;;;;;;;11.10;8.53;;;;;;;15.20;75.11;99585.26;1784560;80;21512;-73
2022/09/13 05:22:25;;;;;;;10.97;8.47;;;;;;;15.23;75.68;99588.67;1767666;80;22093;-73
2022/09/13 05:24:52;;;;;;;12.47;9.33;;;;;;;15.23;75.68;99588.67;1765517;80;21964;-73
2022/09/13 05:27:19;;;;;;;11.10;9.80;;;;;;;15.19;75.26;99599.79;1772442;80;21927;-71
2022/09/13 05:29:45;;;;;;;11.63;9.20;;;;;;;15.08;75.53;99601.18;1772074;80;21387;-72
2022/09/13 05:32:12;;;;;;;12.13;9.27;;;;;;;15.08;74.82;99607.12;1759147;80;21533;-74
2022/09/13 05:34:39;;;;;;;11.00;8.73;;;;;;;15.12;75.40;99607.52;1712170;83;21609;-74
2022/09/13 05:37:06;;;;;;;14.60;8.53;;;;;;;15.12;75.40;99607.52;1711004;82;21988;-74
2022/09/13 05:39:38;;;;;;;12.17;9.37;;;;;;;15.11;75.16;99613.22;1709772;82;21589;-73
2022/09/13 05:42:03;;;;;;;13.17;9.37;;;;;;;15.12;75.21;99618.28;1709352;82;21412;-74
2022/09/13 05:44:30;;;;;;;13.13;10.57;;;;;;;15.11;75.17;99618.05;1710422;82;21454;-74
2022/09/13 05:46:59;;;;;;;15.53;10.27;;;;;;;15.12;74.92;99625.00;1710017;82;21482;-75
2022/09/13 05:49:26;;;;;;;12.90;9.43;;;;;;;15.09;74.89;99621.59;1710847;82;21297;-71
2022/09/13 05:51:54;;;;;;;11.93;10.13;;;;;;;15.09;74.89;99621.59;1710999;82;21545;-73
2022/09/13 05:54:21;;;;;;;12.57;11.00;;;;;;;15.05;74.78;99634.07;1711018;82;21608;-74
2022/09/13 05:56:51;;;;;;;11.93;10.37;;;;;;;14.99;74.84;99625.34;1716768;83;21846;-73
2022/09/13 05:59:16;;;;;;;12.30;10.43;;;;;;;14.97;74.67;99632.94;1715258;83;21594;-75
2022/09/13 06:01:44;;;;;;;12.57;10.77;;;;;;;14.96;74.69;99632.67;1682461;83;21464;-73
2022/09/13 06:04:11;;;;;;;14.80;11.20;;;;;;;14.93;74.78;99627.13;1699912;82;21646;-74
2022/09/13 06:06:38;;;;;;;15.10;11.60;;;;;;;14.98;74.14;99637.76;1728666;82;21801;-73
2022/09/13 06:09:07;;;;;;;12.33;10.23;;;;;;;14.98;74.10;99641.80;1701512;83;21510;-74
2022/09/13 06:11:33;;;;;;;16.50;11.93;;;;;;;14.98;74.10;99641.80;1772048;80;21940;-74
2022/09/13 06:14:02;;;;;;;17.27;12.67;;;;;;;15.01;74.20;99646.55;1771424;80;21492;-73
2022/09/13 06:16:28;;;;;;;21.50;14.17;;;;;;;14.98;73.90;99642.58;1771991;80;21996;-74
2022/09/13 06:18:57;;;;;;;17.10;14.13;;;;;;;14.98;73.90;99642.58;1774147;80;21509;-73
2022/09/13 06:21:24;;;;;;;18.60;13.53;;;;;;;15.03;73.91;99647.02;1776447;80;21514;-74
2022/09/13 06:23:52;;;;;;;17.33;13.77;;;;;;;15.11;73.69;99646.28;1784627;80;21688;-73
2022/09/13 06:26:24;;;;;;;17.13;12.87;;;;;;;15.11;73.69;99646.28;1784297;80;21457;-73
2022/09/13 06:28:53;;;;;;;15.48;12.13;;;;;;;15.17;73.51;99646.40;1784231;80;21957;-74
2022/09/13 06:31:23;;;;;;;17.73;12.33;;;;;;;15.19;73.36;99653.59;1761182;80;21805;-74
2022/09/13 06:34:01;;;;;;;16.77;12.57;;;;;;;15.23;73.23;99645.69;1711922;83;21487;-73
2022/09/13 06:36:28;;;;;;;16.60;12.17;;;;;;;15.27;72.92;99645.86;1701418;83;21641;-73
2022/09/13 06:38:56;;;;;;;16.83;12.33;;;;;;;15.29;72.58;99655.77;1682337;83;22194;-74
2022/09/13 06:41:23;;;;;;;15.73;12.47;;;;;;;15.34;72.24;99654.30;1699364;83;21741;-75
2022/09/13 06:43:57;;;;;;;18.13;13.30;;;;;;;15.39;72.48;99660.88;1729463;82;21659;-73
2022/09/13 06:46:28;;;;;;;17.83;13.07;;;;;;;15.39;72.48;99660.88;1695019;83;21553;-74
2022/09/13 06:49:03;;;;;;;16.13;12.43;;;;;;;15.45;72.14;99658.30;1690832;83;21768;-74
2022/09/13 06:51:32;;;;;;;16.43;12.03;;;;;;;15.48;72.04;99662.50;1690168;83;21756;-73
2022/09/13 06:53:59;;;;;;;16.00;12.03;;;;;;;15.46;71.63;99673.33;1689647;83;21565;-72
2022/09/13 06:56:31;;;;;;;19.80;12.63;;;;;;;15.41;71.03;99674.83;1701661;83;21648;-73
2022/09/13 06:59:07;;;;;;;16.87;11.73;;;;;;;15.41;71.03;99674.83;1695276;83;21741;-72
2022/09/13 07:01:39;;;;;;;16.27;11.33;;;;;;;15.40;71.29;99678.59;1704651;83;21713;-74
2022/09/13 07:04:15;;;;;;;15.40;12.47;;;;;;;15.39;71.18;99668.95;1710044;82;21091;-73
2022/09/13 07:06:47;;;;;;;16.57;12.77;;;;;;;15.28;70.97;99678.41;1722556;82;21610;-74
2022/09/13 07:09:17;;;;;;;16.87;12.53;;;;;;;15.25;70.97;99682.50;1692559;83;21775;-74
2022/09/13 07:11:45;;;;;;;16.30;12.10;;;;;;;15.22;71.03;99682.56;1677518;85;21023;-73
2022/09/13 07:14:19;;;;;;;15.17;11.10;;;;;;;15.23;71.28;99688.20;1712104;83;21701;-74
2022/09/13 07:16:47;;;;;;;16.60;12.13;;;;;;;15.29;71.35;99688.06;1711555;82;22211;-74
2022/09/13 07:19:18;;;;;;;16.07;12.03;;;;;;;15.34;71.50;99689.28;1703392;83;21815;-74
2022/09/13 07:21:45;;;;;;;17.00;11.47;;;;;;;15.36;71.53;99698.61;1770825;80;22358;-73
2022/09/13 07:24:13;;;;;;;16.13;11.80;;;;;;;15.38;71.45;99699.66;1784690;80;22241;-75
2022/09/13 07:26:40;;;;;;;15.40;10.93;;;;;;;15.47;71.42;99683.80;1784693;80;22190;-75
2022/09/13 07:29:15;;;;;;;14.97;11.33;;;;;;;15.47;71.42;99683.80;1767243;80;21721;-74
2022/09/13 07:31:46;;;;;;;18.20;12.27;;;;;;;15.57;71.08;99686.77;1766681;80;22142;-73
2022/09/13 07:34:16;;;;;;;14.25;11.48;;;;;;;15.74;71.03;99697.38;1784793;80;21731;-75
2022/09/13 07:36:46;;;;;;;17.67;11.10;;;;;;;15.89;70.68;99687.50;1784834;80;21498;-75
2022/09/13 07:39:14;;;;;;;13.60;10.43;;;;;;;16.08;70.37;99678.59;1782789;80;21758;-75
2022/09/13 07:41:41;;;;;;;12.23;10.60;;;;;;;16.25;69.83;99689.16;1773872;80;21698;-75
2022/09/13 07:44:10;;;;;;;13.77;9.90;;;;;;;16.37;69.36;99678.55;1771644;80;21720;-74
2022/09/13 07:46:42;;;;;;;15.57;10.17;;;;;;;16.44;68.57;99692.34;1765177;80;21699;-73
2022/09/13 07:49:13;;;;;;;15.00;10.93;;;;;;;16.37;66.90;99675.30;1771715;80;21871;-72
2022/09/13 07:51:43;;;;;;;14.73;11.13;;;;;;;16.37;66.90;99675.30;1766746;80;21063;-74
2022/09/13 07:54:16;;;;;;;13.00;10.60;;;;;;;16.35;66.79;99678.06;1762094;80;22252;-73
2022/09/13 07:56:44;;;;;;;15.50;10.90;;;;;;;16.32;66.52;99681.39;1712133;83;21630;-73
2022/09/13 07:59:14;;;;;;;14.63;10.47;;;;;;;16.32;66.11;99671.95;1710452;82;21744;-74
2022/09/13 08:01:43;;;;;;;15.17;11.17;;;;;;;16.36;65.97;99674.28;1702746;83;21736;-74
2022/09/13 08:04:12;;;;;;;16.17;10.70;;;;;;;16.44;66.00;99666.73;1776773;79;21643;-74
2022/09/13 08:06:40;;;;;;;14.47;9.50;;;;;;;16.52;66.11;99675.39;1784651;80;21750;-73
2022/09/13 08:09:08;;;;;;;17.73;10.60;;;;;;;16.52;65.77;99680.78;1784651;80;22213;-75
2022/09/13 08:11:44;;;;;;;12.50;9.23;;;;;;;16.46;65.53;99678.00;1784353;80;21644;-74
2022/09/13 08:14:14;;;;;;;11.67;9.27;;;;;;;16.37;65.29;99682.03;1771013;80;22161;-73
2022/09/13 08:16:41;;;;;;;13.20;9.40;;;;;;;16.27;65.34;99673.47;1761140;80;22163;-75
2022/09/13 08:19:11;;;;;;;12.87;9.83;;;;;;;16.25;65.54;99673.77;1771736;80;22254;-73
2022/09/13 08:21:39;;;;;;;10.63;8.77;;;;;;;16.14;65.53;99677.34;1748409;80;21753;-75
2022/09/13 08:24:09;;;;;;;13.93;9.67;;;;;;;16.14;65.53;99677.34;1781057;80;21146;-74
2022/09/13 08:26:37;;;;;;;12.23;9.07;;;;;;;16.08;65.45;99666.47;1748702;80;21611;-73
2022/09/13 08:29:05;;;;;;;12.17;8.77;;;;;;;16.05;65.51;99673.05;1783952;80;22075;-74
2022/09/13 08:31:32;;;;;;;13.53;9.20;;;;;;;16.03;65.53;99673.37;1783474;80;21716;-74
2022/09/13 08:33:59;;;;;;;11.97;9.13;;;;;;;16.03;65.61;99673.93;1784701;80;21788;-73
2022/09/13 08:36:26;;;;;;;11.43;8.83;;;;;;;16.05;65.77;99674.39;1784954;80;21602;-73
2022/09/13 08:38:59;;;;;;;16.13;9.37;;;;;;;16.05;65.67;99677.88;1784555;80;21618;-74
2022/09/13 08:41:47;;;;;;;13.90;9.60;;;;;;;16.04;65.54;99676.30;1784879;80;21619;-73
2022/09/13 08:44:22;;;;;;;12.70;9.10;;;;;;;16.00;65.42;99672.66;1784563;80;21642;-74
2022/09/13 08:46:47;;;;;;;12.57;9.23;;;;;;;15.89;65.51;99674.04;1775629;80;22177;-74
2022/09/13 08:49:25;;;;;;;12.20;9.20;;;;;;;15.83;65.68;99673.41;1771300;80;21571;-71
2022/09/13 08:52:06;;;;;;;11.63;9.47;;;;;;;15.79;65.90;99671.64;1772469;80;21724;-73
2022/09/13 08:54:33;;;;;;;12.35;9.78;;;;;;;15.79;66.19;99675.68;1759114;80;22231;-74
2022/09/13 08:57:21;;;;;;;12.83;10.27;;;;;;;15.82;66.34;99677.75;1770240;80;21089;-73
2022/09/13 08:59:55;;;;;;;12.23;9.77;;;;;;;15.87;66.47;99677.62;1739254;80;21671;-74
2022/09/13 09:03:01;;;;;;;14.80;10.40;;;;;;;15.87;66.11;99675.71;1769227;80;21724;-73
2022/09/13 09:05:30;;;;;;;14.57;10.03;;;;;;;15.87;66.00;99673.58;1767128;79;21738;-74
2022/09/13 09:08:21;;;;;;;13.90;10.97;;;;;;;15.87;66.05;99676.27;1770992;80;23190;-72
2022/09/13 09:10:49;;;;;;;13.27;9.63;;;;;;;15.86;65.95;99676.02;1771765;80;21726;-72
2022/09/13 09:13:39;;;;;;;13.20;9.80;;;;;;;15.74;65.76;99680.67;1748460;80;21793;-73
2022/09/13 09:16:13;;;;;;;14.13;9.97;;;;;;;15.61;65.96;99678.30;1763178;80;21818;-75
2022/09/13 09:18:42;;;;;;;11.33;9.70;;;;;;;15.46;66.25;99680.87;1763177;80;22247;-74
2022/09/13 09:21:13;;;;;;;12.80;9.93;;;;;;;15.40;66.59;99670.00;1767496;80;21740;-73
2022/09/13 09:23:52;;;;;;;14.17;10.20;;;;;;;15.48;66.95;99667.09;1770538;80;37785;-73
2022/09/13 09:26:30;;;;;;;11.97;9.33;;;;;;;15.66;67.11;99673.31;1752500;80;21714;-73
2022/09/13 09:29:16;;;;;;;14.93;9.83;;;;;;;15.79;66.72;99671.64;1770190;80;21693;-73
2022/09/13 09:32:39;;;;;;;11.70;9.47;;;;;;;15.88;66.28;99664.38;1770380;80;22278;-75
2022/09/13 09:35:47;;;;;;;13.78;10.30;;;;;;;15.95;65.85;99668.75;1769077;80;22220;-73
2022/09/13 09:38:39;;;;;;;12.93;10.13;;;;;;;15.99;65.56;99661.66;1762445;80;21015;-73
2022/09/13 09:41:28;;;;;;;13.70;9.90;;;;;;;15.98;65.14;99656.56;1748191;80;21714;-73
2022/09/13 09:44:22;;;;;;;11.63;9.33;;;;;;;15.97;64.98;99663.06;1765743;80;21215;-73
2022/09/13 09:46:57;;;;;;;11.87;10.17;;;;;;;15.92;64.77;99660.73;1769421;80;21677;-73
2022/09/13 09:52:21;;;;;;;12.07;9.17;;;;;;;15.94;65.22;99665.27;1706054;83;21725;-73
2022/09/13 09:54:50;;;;;;;;;;;;;;;15.99;64.77;99673.77;1706164;83;21825;-73
2022/09/13 09:57:19;;;;;;;15.03;9.13;;;;;;;15.97;64.12;99674.63;1699196;83;20814;-73
2022/09/13 09:59:46;;;;;;;15.17;9.33;;;;;;;15.94;64.04;99663.13;1706187;83;21756;-73
2022/09/13 10:02:17;;;;;;;12.27;9.10;;;;;;;15.94;64.13;99659.09;1702008;83;21736;-73
2022/09/13 10:04:55;;;;;;;10.43;7.85;;;;;;;15.97;63.88;99665.20;1761385;80;22157;-73
2022/09/13 10:07:27;;;;;;;13.10;8.60;;;;;;;15.90;63.29;99661.62;1758981;80;21114;-74
2022/09/13 10:10:23;;;;;;;12.90;8.73;;;;;;;15.83;63.26;99652.43;1751304;82;21620;-72
2022/09/13 10:12:51;;;;;;;13.50;9.30;;;;;;;15.76;63.51;99668.23;1711267;82;22308;-73
2022/09/13 10:15:20;;;;;;;11.97;8.60;;;;;;;15.68;63.82;99665.77;1706432;83;21704;-73
2022/09/13 10:18:16;;;;;;;12.40;9.47;;;;;;;15.63;63.72;99671.25;1710507;83;22166;-73
2022/09/13 10:20:47;;;;;;;14.73;9.13;;;;;;;15.60;63.94;99662.48;1771426;80;21781;-73
2022/09/13 10:23:18;;;;;;;11.77;9.03;;;;;;;15.56;64.06;99679.77;1741220;80;22204;-74
2022/09/13 10:26:07;;;;;;;11.55;8.45;;;;;;;15.54;64.03;99671.23;1771482;80;21745;-74
2022/09/13 10:29:04;;;;;;;13.05;8.50;;;;;;;15.55;64.15;99667.98;1764463;80;20964;-73
2022/09/13 10:31:37;;;;;;;12.47;8.90;;;;;;;15.52;63.71;99670.74;1771549;80;21035;-72
2022/09/13 10:34:21;;;;;;;14.80;8.07;;;;;;;15.49;63.67;99676.19;1767592;80;21785;-72
2022/09/13 10:37:12;;;;;;;11.77;8.33;;;;;;;15.45;63.38;99681.95;1770936;80;22083;-73
2022/09/13 10:40:03;;;;;;;12.23;8.60;;;;;;;15.42;63.41;99681.78;1720770;82;21682;-73
2022/09/13 10:42:30;;;;;;;11.90;7.70;;;;;;;15.42;63.41;99681.78;1727108;80;21732;-76
2022/09/13 10:45:05;;;;;;;11.67;7.17;;;;;;;15.40;63.53;99696.91;1771549;80;21689;-74
2022/09/13 10:47:38;;;;;;;11.30;7.43;;;;;;;15.40;63.28;99686.14;1766995;80;21675;-73
2022/09/13 10:50:26;;;;;;;11.60;7.10;;;;;;;15.39;63.31;99678.37;1764874;80;21751;-72
2022/09/13 10:52:55;;;;;;;10.47;6.70;;;;;;;15.37;63.12;99678.69;1767451;80;21748;-73
2022/09/13 10:55:37;;;;;;;12.97;6.70;;;;;;;15.37;63.12;99684.08;1767450;80;21761;-73
2022/09/13 10:58:11;;;;;;;11.20;6.60;;;;;;;15.36;62.51;99682.47;1768339;80;21831;-72
2022/09/13 11:00:59;;;;;;;11.63;7.07;;;;;;;15.38;62.57;99680.83;1769767;80;21661;-73
2022/09/13 11:03:58;;;;;;;11.83;7.23;;;;;;;15.42;62.52;99689.30;1746685;80;21624;-72
2022/09/13 11:07:01;;;;;;;13.67;7.37;;;;;;;15.50;62.28;99679.70;1711983;83;21672;-73
2022/09/13 11:10:05;;;;;;;12.82;6.92;;;;;;;15.61;61.95;99686.38;1710637;82;22453;-72
2022/09/13 11:12:38;;;;;;;9.77;6.80;;;;;;;15.71;61.43;99679.39;1691784;82;21007;-73
2022/09/13 11:15:17;;;;;;;9.93;6.57;;;;;;;15.82;61.36;99677.75;1720986;82;21667;-72
2022/09/13 11:18:15;;;;;;;11.53;7.47;;;;;;;15.91;60.54;99678.02;1701766;83;21690;-74
2022/09/13 11:21:11;;;;;;;9.43;7.03;;;;;;;15.95;60.22;99682.22;1771484;80;21749;-74
2022/09/13 11:23:59;;;;;;;10.17;6.80;;;;;;;15.99;60.21;99682.38;1766589;80;22245;-72
2022/09/13 11:26:55;;;;;;;13.07;8.03;;;;;;;16.00;60.20;99682.64;1763163;80;21799;-72
2022/09/13 11:29:45;;;;;;;16.53;8.03;;;;;;;16.00;60.05;99679.39;1764844;80;21746;-72
2022/09/13 11:32:24;;;;;;;11.80;8.30;;;;;;;15.98;59.85;99673.51;1771888;80;21619;-72
2022/09/13 11:35:21;;;;;;;13.70;7.37;;;;;;;16.01;60.09;99677.48;1767342;80;21776;-73
2022/09/13 11:38:08;;;;;;;12.57;8.27;;;;;;;15.95;59.71;99679.52;1765559;80;21662;-73
2022/09/13 11:41:13;;;;;;;8.87;7.07;;;;;;;15.93;59.87;99675.02;1765456;80;21658;-72
2022/09/13 11:44:16;;;;;;;10.57;7.03;;;;;;;15.93;60.02;99681.20;1772018;80;21639;-73
2022/09/13 11:46:58;;;;;;;14.40;7.83;;;;;;;15.96;60.11;99681.13;1770045;80;21916;-73
2022/09/13 11:50:10;;;;;;;10.73;7.40;;;;;;;16.00;60.49;99686.12;1756229;80;21604;-73
2022/09/13 11:53:02;;;;;;;9.08;7.15;;;;;;;16.07;60.88;99692.39;1687277;83;20996;-74
2022/09/13 11:55:36;;;;;;;9.10;6.55;;;;;;;16.13;61.00;99687.88;1711680;83;21027;-73
2022/09/13 11:58:11;;;;;;;11.97;7.33;;;;;;;16.15;61.09;99684.30;1711669;82;21050;-73
2022/09/13 12:00:45;;;;;;;9.57;6.60;;;;;;;16.14;61.27;99691.37;1697816;83;21898;-73
2022/09/13 12:03:38;;;;;;;10.27;7.07;;;;;;;16.10;61.43;99687.16;1703688;83;21706;-73
2022/09/13 12:06:16;;;;;;;8.07;6.80;;;;;;;16.06;61.43;99692.16;1678621;83;21821;-75
2022/09/13 12:08:50;;;;;;;11.07;7.40;;;;;;;15.97;61.45;99688.09;1715911;83;21726;-71
2022/09/13 12:11:22;;;;;;;10.20;6.80;;;;;;;15.93;61.75;99701.39;1716125;83;22230;-73
2022/09/13 12:13:59;;;;;;;8.58;6.72;;;;;;;15.89;62.04;99695.59;1766015;80;21696;-73